Time;durP1;ratioP1;P1;durP2;ratioP2;P2;SDS_P1;SDS_P2;PMS_P1;PMS_P2;Temp;Humidity;BMP_temperature;BMP_pressure;BME280_temperature;BME280_humidity;BME280_pressure;Samples;Min_cycle;Max_cycle;Signal;HPM_P1;HPM_P2
2020/12/24 00:00:13;;;;;;;33.00;21.17;;;10.40;94.70;;;;;;4865246;28;93648;-77
2020/12/24 00:02:39;;;;;;;39.30;26.77;;;10.50;94.80;;;;;;4848745;28;92660;-77
2020/12/24 00:05:05;;;;;;;37.10;24.80;;;10.60;94.90;;;;;;4866962;28;94966;-77
2020/12/24 00:07:31;;;;;;;34.88;24.08;;;10.60;94.90;;;;;;4869749;28;96054;-77
2020/12/24 00:09:56;;;;;;;37.42;24.52;;;10.60;95.00;;;;;;4885385;28;92313;-77
2020/12/24 00:12:22;;;;;;;29.85;20.65;;;10.70;94.90;;;;;;4852427;28;91477;-77
2020/12/24 00:14:48;;;;;;;26.77;18.30;;;10.70;95.00;;;;;;4882827;28;96843;-77
2020/12/24 00:17:14;;;;;;;26.00;18.20;;;10.80;95.00;;;;;;4868082;28;95598;-77
2020/12/24 00:19:40;;;;;;;23.48;16.25;;;10.80;95.00;;;;;;4867901;28;93548;-77
2020/12/24 00:22:05;;;;;;;23.75;15.95;;;10.80;95.00;;;;;;4868394;28;92676;-77
2020/12/24 00:24:31;;;;;;;22.85;15.00;;;10.90;94.90;;;;;;4868731;28;92967;-77
2020/12/24 00:26:57;;;;;;;22.38;14.07;;;10.90;94.90;;;;;;4879878;28;92841;-77
2020/12/24 00:29:23;;;;;;;22.55;13.25;;;11.00;94.90;;;;;;4887110;28;92593;-77
2020/12/24 00:31:49;;;;;;;23.80;14.10;;;11.00;94.80;;;;;;4867069;28;92545;-77
2020/12/24 00:34:14;;;;;;;21.75;14.57;;;11.10;94.70;;;;;;4884355;28;96740;-77
2020/12/24 00:36:40;;;;;;;20.10;13.98;;;11.20;94.70;;;;;;4882783;28;93049;-77
2020/12/24 00:39:06;;;;;;;18.85;12.40;;;11.20;94.60;;;;;;4885147;28;92028;-77
2020/12/24 00:41:32;;;;;;;23.90;13.93;;;11.20;94.50;;;;;;4866231;28;92214;-77
2020/12/24 00:43:58;;;;;;;17.75;11.95;;;11.30;94.90;;;;;;4884605;28;94396;-77
2020/12/24 00:46:24;;;;;;;15.48;10.75;;;11.30;94.70;;;;;;4883000;28;95899;-77
2020/12/24 00:48:50;;;;;;;18.15;10.32;;;11.30;94.80;;;;;;4884787;28;92050;-77
2020/12/24 00:51:16;;;;;;;13.18;8.00;;;11.30;94.90;;;;;;4870723;28;92106;-78
2020/12/24 00:53:42;;;;;;;14.20;9.15;;;11.30;94.90;;;;;;4867611;28;96887;-77
2020/12/24 00:56:10;;;;;;;10.88;7.13;;;11.30;95.00;;;;;;4853343;28;93307;-77
2020/12/24 00:58:40;;;;;;;10.80;6.70;;;11.40;95.00;;;;;;4871203;28;92636;-77
2020/12/24 01:01:06;;;;;;;11.40;6.60;;;11.40;95.00;;;;;;4870923;28;91796;-77
2020/12/24 01:03:33;;;;;;;9.02;6.25;;;11.40;94.90;;;;;;4870422;28;95817;-78
2020/12/24 01:05:58;;;;;;;9.80;5.95;;;11.50;95.00;;;;;;4871161;28;94849;-77
2020/12/24 01:08:24;;;;;;;7.80;5.45;;;11.50;95.00;;;;;;4887486;28;93523;-77
2020/12/24 01:10:51;;;;;;;7.50;4.60;;;11.50;94.90;;;;;;4870872;28;92279;-77
2020/12/24 01:13:17;;;;;;;6.63;4.28;;;11.60;94.80;;;;;;4863508;29;97119;-78
2020/12/24 01:15:43;;;;;;;6.70;4.22;;;11.60;94.70;;;;;;4883268;28;96033;-78
2020/12/24 01:18:08;;;;;;;5.20;3.60;;;11.60;94.70;;;;;;4885390;28;92440;-77
2020/12/24 01:20:34;;;;;;;8.18;4.07;;;11.60;94.70;;;;;;4881190;28;92073;-77
2020/12/24 01:23:00;;;;;;;6.70;3.53;;;11.70;94.70;;;;;;4866234;28;96271;-77
2020/12/24 01:25:26;;;;;;;5.60;3.55;;;11.70;94.60;;;;;;4882654;28;92657;-77
2020/12/24 01:27:52;;;;;;;6.00;3.10;;;11.70;94.50;;;;;;4883453;28;92494;-77
2020/12/24 01:30:18;;;;;;;5.43;3.30;;;11.80;94.40;;;;;;4867278;28;92556;-77
2020/12/24 01:32:44;;;;;;;6.75;3.60;;;11.80;94.30;;;;;;4864537;28;92917;-77
2020/12/24 01:35:09;;;;;;;5.18;3.20;;;11.80;94.20;;;;;;4866529;28;96708;-78
2020/12/24 01:37:35;;;;;;;7.68;3.95;;;11.80;94.10;;;;;;4847769;29;92336;-77
2020/12/24 01:40:02;;;;;;;4.85;2.70;;;11.80;94.00;;;;;;4875546;28;92413;-77
2020/12/24 01:42:28;;;;;;;5.45;3.15;;;11.90;93.90;;;;;;4869605;28;96646;-76
2020/12/24 01:44:53;;;;;;;5.35;3.05;;;12.00;93.80;;;;;;4894752;28;96658;-77
2020/12/24 01:47:19;;;;;;;5.10;2.67;;;11.90;93.70;;;;;;4883874;28;92213;-77
2020/12/24 01:49:46;;;;;;;6.30;3.15;;;11.90;93.70;;;;;;4868155;28;91432;-77
2020/12/24 01:52:31;;;;;;;5.28;2.95;;;12.00;93.70;;;;;;4876143;28;96273;-77
2020/12/24 01:54:57;;;;;;;3.97;2.88;;;12.00;93.50;;;;;;4869994;28;96339;-77
2020/12/24 01:57:23;;;;;;;4.25;2.97;;;12.00;93.40;;;;;;4866522;28;93564;-77
2020/12/24 01:59:49;;;;;;;5.55;3.20;;;12.00;93.20;;;;;;4865385;28;92669;-77
2020/12/24 02:02:15;;;;;;;5.22;2.95;;;12.10;93.20;;;;;;4864397;28;93058;-77
2020/12/24 02:04:41;;;;;;;4.90;2.78;;;12.10;93.10;;;;;;4852692;28;95146;-77
2020/12/24 02:07:07;;;;;;;4.50;3.00;;;12.10;93.00;;;;;;4870720;28;91998;-77
2020/12/24 02:09:33;;;;;;;7.25;3.20;;;12.00;93.00;;;;;;4883583;28;92033;-76
2020/12/24 02:11:59;;;;;;;4.43;2.83;;;12.00;93.00;;;;;;4870467;28;94592;-77
2020/12/24 02:14:25;;;;;;;6.65;3.65;;;12.00;93.00;;;;;;4865158;28;93383;-77
2020/12/24 02:16:51;;;;;;;6.43;3.28;;;12.00;93.00;;;;;;4863024;29;91993;-77
2020/12/24 02:19:16;;;;;;;4.28;2.83;;;12.00;93.00;;;;;;4881298;28;92251;-76
2020/12/24 02:21:42;;;;;;;4.00;3.00;;;12.00;92.90;;;;;;4881728;28;98053;-77
2020/12/24 02:24:08;;;;;;;5.70;3.17;;;11.90;92.70;;;;;;4888847;28;93267;-77
2020/12/24 02:26:34;;;;;;;5.05;2.88;;;11.90;92.60;;;;;;4889390;28;91971;-76
2020/12/24 02:29:00;;;;;;;4.28;2.70;;;11.90;92.50;;;;;;4887982;28;91984;-77
2020/12/24 02:31:26;;;;;;;4.78;2.85;;;11.90;92.50;;;;;;4869706;28;96647;-77
2020/12/24 02:33:52;;;;;;;5.43;3.17;;;11.90;92.50;;;;;;4869349;28;93057;-77
2020/12/24 02:36:18;;;;;;;5.35;3.33;;;11.80;92.40;;;;;;4878400;28;92232;-76
2020/12/24 02:38:43;;;;;;;7.40;4.20;;;11.90;92.10;;;;;;4869162;28;91679;-77
2020/12/24 02:41:09;;;;;;;8.68;4.72;;;11.90;92.10;;;;;;4869865;28;93038;-77
2020/12/24 02:43:35;;;;;;;7.82;4.60;;;12.00;91.80;;;;;;4868710;28;95161;-77
2020/12/24 02:46:01;;;;;;;6.97;4.72;;;12.00;91.70;;;;;;4868602;28;93110;-77
2020/12/24 02:48:27;;;;;;;7.13;4.05;;;12.00;91.60;;;;;;4868110;28;92840;-76
2020/12/24 02:50:53;;;;;;;4.03;2.47;;;12.00;91.40;;;;;;4868533;28;96541;-77
2020/12/24 02:53:19;;;;;;;5.15;2.58;;;12.10;91.10;;;;;;4871092;28;96330;-77
2020/12/24 02:55:45;;;;;;;7.53;3.25;;;12.10;91.00;;;;;;4887878;28;92418;-77
2020/12/24 02:58:11;;;;;;;5.10;3.30;;;12.10;91.20;;;;;;4888563;28;92431;-77
2020/12/24 03:00:37;;;;;;;4.90;2.88;;;12.10;91.20;;;;;;4869548;28;96476;-76
2020/12/24 03:03:03;;;;;;;4.53;2.30;;;12.10;91.10;;;;;;4869415;28;96259;-77
2020/12/24 03:05:28;;;;;;;4.88;2.95;;;12.10;91.20;;;;;;4895846;28;92119;-77
2020/12/24 03:07:54;;;;;;;3.45;2.63;;;12.10;91.30;;;;;;4889972;28;92010;-77
2020/12/24 03:10:20;;;;;;;4.45;2.83;;;12.10;91.10;;;;;;4887430;28;93708;-77
2020/12/24 03:12:46;;;;;;;4.22;2.55;;;12.10;91.00;;;;;;4889074;28;93411;-77
2020/12/24 03:15:12;;;;;;;5.95;2.70;;;12.10;91.00;;;;;;4873052;28;92039;-77
2020/12/24 03:17:38;;;;;;;4.75;2.63;;;12.00;90.90;;;;;;4888568;28;92089;-76
2020/12/24 03:20:07;;;;;;;4.80;2.50;;;12.10;90.90;;;;;;4869840;28;96195;-77
2020/12/24 03:22:34;;;;;;;5.82;2.47;;;12.10;90.70;;;;;;4865752;28;96316;-76
2020/12/24 03:25:00;;;;;;;3.88;2.38;;;12.10;90.60;;;;;;4870842;28;93573;-77
2020/12/24 03:27:26;;;;;;;3.55;2.13;;;12.10;90.20;;;;;;4866108;28;91515;-77
2020/12/24 03:29:53;;;;;;;3.78;2.20;;;12.20;90.10;;;;;;4879942;28;93225;-77
2020/12/24 03:32:19;;;;;;;4.32;2.28;;;12.20;89.70;;;;;;4869202;28;95177;-76
2020/12/24 03:34:45;;;;;;;2.90;2.10;;;12.20;89.70;;;;;;4868790;28;93485;-77
2020/12/24 03:37:11;;;;;;;4.22;2.20;;;12.30;89.40;;;;;;4885566;28;92360;-76
2020/12/24 03:39:36;;;;;;;3.25;2.30;;;12.30;89.10;;;;;;4900089;28;92833;-77
2020/12/24 03:42:02;;;;;;;3.10;2.13;;;12.30;89.00;;;;;;4884522;28;96595;-77
2020/12/24 03:44:28;;;;;;;3.63;2.63;;;12.30;88.80;;;;;;4869421;28;92114;-77
2020/12/24 03:46:54;;;;;;;3.75;2.20;;;12.40;89.10;;;;;;4870378;28;92205;-77
2020/12/24 03:49:20;;;;;;;3.50;2.45;;;12.40;87.80;;;;;;4887389;28;93102;-76
2020/12/24 03:51:45;;;;;;;3.72;2.70;;;12.40;87.90;;;;;;4848179;28;96767;-77
2020/12/24 03:54:11;;;;;;;4.35;2.47;;;12.40;87.70;;;;;;4879076;28;92001;-77
2020/12/24 03:56:37;;;;;;;6.05;3.10;;;12.40;87.60;;;;;;4869702;28;92556;-76
2020/12/24 03:59:03;;;;;;;3.65;2.42;;;12.40;87.70;;;;;;4888527;28;94227;-77
2020/12/24 04:01:29;;;;;;;4.18;2.83;;;12.40;87.60;;;;;;4856980;28;97141;-76
2020/12/24 04:03:54;;;;;;;5.35;3.03;;;12.50;87.10;;;;;;4889767;28;92470;-77
2020/12/24 04:06:20;;;;;;;3.80;2.67;;;12.50;87.20;;;;;;4886840;28;92014;-77
2020/12/24 04:08:46;;;;;;;3.28;2.55;;;12.50;87.30;;;;;;4870042;28;95619;-77
2020/12/24 04:11:11;;;;;;;3.95;2.38;;;12.50;86.90;;;;;;4884727;28;92833;-77
2020/12/24 04:13:37;;;;;;;4.13;2.95;;;12.50;87.10;;;;;;4887507;28;91980;-77
2020/12/24 04:16:03;;;;;;;6.22;2.42;;;12.50;87.00;;;;;;4872328;28;91396;-77
2020/12/24 04:18:29;;;;;;;3.08;2.30;;;12.40;87.00;;;;;;4886436;28;92663;-77
2020/12/24 04:20:55;;;;;;;4.13;2.25;;;12.40;87.20;;;;;;4870290;28;93949;-77
2020/12/24 04:23:20;;;;;;;3.67;2.20;;;12.30;87.30;;;;;;4871180;28;92983;-77
2020/12/24 04:25:46;;;;;;;4.22;1.92;;;12.40;87.40;;;;;;4889257;28;92185;-77
2020/12/24 04:28:12;;;;;;;3.42;2.40;;;12.30;87.00;;;;;;4888515;28;96759;-77
2020/12/24 04:30:38;;;;;;;2.83;2.20;;;12.30;86.50;;;;;;4871108;28;95830;-77
2020/12/24 04:33:04;;;;;;;4.53;1.98;;;12.30;86.60;;;;;;4872826;28;92779;-77
2020/12/24 04:35:29;;;;;;;3.72;1.95;;;12.20;86.60;;;;;;4888902;28;92434;-77
2020/12/24 04:37:55;;;;;;;3.47;2.03;;;12.20;86.30;;;;;;4886458;28;97036;-77
2020/12/24 04:40:21;;;;;;;3.17;2.08;;;12.10;86.70;;;;;;4888450;28;92841;-77
2020/12/24 04:42:48;;;;;;;3.60;1.70;;;12.10;86.40;;;;;;4887827;28;92364;-77
2020/12/24 04:45:14;;;;;;;3.45;1.83;;;12.10;86.50;;;;;;4891240;28;92091;-77
2020/12/24 04:47:42;;;;;;;3.47;2.22;;;12.10;86.20;;;;;;4872376;28;97701;-78
2020/12/24 04:50:09;;;;;;;5.25;1.98;;;12.10;86.30;;;;;;4869325;28;94360;-77
2020/12/24 04:52:35;;;;;;;4.78;2.40;;;12.10;85.80;;;;;;4864360;29;92028;-79
2020/12/24 04:55:05;;;;;;;3.75;2.67;;;12.10;86.20;;;;;;4885809;28;92168;-78
2020/12/24 04:57:31;;;;;;;3.63;2.28;;;12.00;86.50;;;;;;4883854;28;93600;-76
2020/12/24 05:00:00;;;;;;;3.35;2.25;;;12.00;86.80;;;;;;4866396;28;96537;-77
2020/12/24 05:02:26;;;;;;;4.78;2.65;;;11.90;86.90;;;;;;4873144;28;92243;-78
2020/12/24 05:04:53;;;;;;;5.85;2.15;;;11.90;87.00;;;;;;4850594;29;92180;-78
2020/12/24 05:07:19;;;;;;;3.10;1.95;;;11.90;86.80;;;;;;4867774;28;97134;-77
2020/12/24 05:09:49;;;;;;;4.78;2.20;;;11.90;87.00;;;;;;4870629;28;92142;-77
2020/12/24 05:12:32;;;;;;;4.65;2.33;;;11.80;87.40;;;;;;4854914;28;92886;-77
2020/12/24 05:14:58;;;;;;;3.17;2.13;;;11.90;87.30;;;;;;4871064;28;92584;-77
2020/12/24 05:17:25;;;;;;;3.03;2.22;;;11.90;87.50;;;;;;4887236;28;93233;-77
2020/12/24 05:20:05;;;;;;;2.78;2.00;;;11.90;87.40;;;;;;4884804;28;92918;-78
2020/12/24 05:22:31;;;;;;;2.97;2.22;;;11.90;87.40;;;;;;4868839;28;92096;-77
2020/12/24 05:25:18;;;;;;;3.28;2.10;;;11.80;87.10;;;;;;4884808;28;92267;-77
2020/12/24 05:27:44;;;;;;;2.92;1.50;;;11.80;86.70;;;;;;4884447;28;96339;-77
2020/12/24 05:30:09;;;;;;;4.80;1.73;;;11.80;86.80;;;;;;4884124;28;95429;-77
2020/12/24 05:32:35;;;;;;;6.45;1.85;;;11.80;86.90;;;;;;4878970;28;92115;-77
2020/12/24 05:35:12;;;;;;;2.97;1.88;;;11.80;87.00;;;;;;4882214;28;92471;-78
2020/12/24 05:37:38;;;;;;;3.88;1.90;;;11.80;87.00;;;;;;4884350;28;93511;-77
2020/12/24 05:40:20;;;;;;;3.63;1.92;;;11.80;86.70;;;;;;4884691;28;97419;-77
2020/12/24 05:42:50;;;;;;;4.57;1.90;;;11.90;86.50;;;;;;4883113;28;92345;-77
2020/12/24 05:45:17;;;;;;;6.45;2.10;;;11.80;86.30;;;;;;4869264;28;92146;-78
2020/12/24 05:47:44;;;;;;;3.33;1.90;;;11.80;86.20;;;;;;4884570;28;96171;-78
2020/12/24 05:50:24;;;;;;;5.95;2.53;;;11.80;86.40;;;;;;4878695;28;97222;-77
2020/12/24 05:53:09;;;;;;;2.58;1.75;;;11.80;86.10;;;;;;4885928;28;93309;-77
2020/12/24 05:55:37;;;;;;;4.70;2.35;;;11.80;86.00;;;;;;4882885;28;91293;-77
2020/12/24 05:58:03;;;;;;;3.92;2.05;;;11.80;86.00;;;;;;4866063;28;96164;-78
2020/12/24 06:00:47;;;;;;;3.47;2.47;;;11.80;85.80;;;;;;4881750;28;96155;-77
2020/12/24 06:03:15;;;;;;;3.03;2.08;;;11.80;85.50;;;;;;4869102;28;93501;-77
2020/12/24 06:05:56;;;;;;;3.28;2.17;;;11.80;85.80;;;;;;4886222;28;92517;-77
2020/12/24 06:08:33;;;;;;;3.33;2.40;;;11.80;85.60;;;;;;4878575;28;93263;-77
2020/12/24 06:11:04;;;;;;;4.20;2.47;;;11.80;85.60;;;;;;4871661;28;96458;-77
2020/12/24 06:13:34;;;;;;;3.85;2.08;;;11.90;85.20;;;;;;4862575;29;92170;-77
2020/12/24 06:16:05;;;;;;;3.78;2.22;;;11.80;85.40;;;;;;4889850;28;91967;-77
2020/12/24 06:18:36;;;;;;;3.22;2.08;;;11.80;85.40;;;;;;4890006;28;95366;-76
2020/12/24 06:21:11;;;;;;;2.60;1.97;;;11.80;85.60;;;;;;4874823;28;95082;-77
2020/12/24 06:23:38;;;;;;;3.58;1.70;;;11.90;85.30;;;;;;4894473;28;92131;-77
2020/12/24 06:26:07;;;;;;;2.63;1.65;;;11.80;85.50;;;;;;4869513;29;92118;-78
2020/12/24 06:28:35;;;;;;;3.78;1.73;;;11.80;85.30;;;;;;4896679;28;97742;-77
2020/12/24 06:31:02;;;;;;;5.15;2.40;;;11.90;84.90;;;;;;4870917;28;95492;-77
2020/12/24 06:33:29;;;;;;;4.22;1.73;;;11.80;85.00;;;;;;4873629;28;92336;-78
2020/12/24 06:35:56;;;;;;;2.97;1.58;;;11.80;85.10;;;;;;4880601;28;92089;-78
2020/12/24 06:38:43;;;;;;;5.57;2.13;;;11.80;85.00;;;;;;4867155;28;94062;-77
2020/12/24 06:41:37;;;;;;;3.13;2.03;;;11.80;84.90;;;;;;4848522;29;96024;-77
2020/12/24 06:44:08;;;;;;;3.95;1.80;;;11.80;85.10;;;;;;4888329;28;92451;-77
2020/12/24 06:46:56;;;;;;;4.57;1.92;;;11.80;85.20;;;;;;4871087;28;91683;-77
2020/12/24 06:49:32;;;;;;;5.38;2.00;;;11.70;85.00;;;;;;4880162;28;96588;-78
2020/12/24 06:51:59;;;;;;;4.47;1.50;;;11.70;85.00;;;;;;4885894;28;93530;-77
2020/12/24 06:54:28;;;;;;;3.25;1.77;;;11.80;84.70;;;;;;4871128;28;93128;-78
2020/12/24 06:57:22;;;;;;;3.15;1.85;;;11.80;84.40;;;;;;4869867;28;92650;-77
2020/12/24 07:00:09;;;;;;;3.33;1.67;;;11.80;84.50;;;;;;4870252;28;96905;-77
2020/12/24 07:02:35;;;;;;;3.28;1.45;;;11.80;83.90;;;;;;4887291;28;92221;-77
2020/12/24 07:05:00;;;;;;;4.32;1.48;;;11.80;84.00;;;;;;4871786;28;92308;-77
2020/12/24 07:07:46;;;;;;;3.42;1.60;;;11.80;83.90;;;;;;4887525;28;92188;-77
2020/12/24 07:10:47;;;;;;;2.17;1.42;;;11.80;83.20;;;;;;4890399;28;92939;-77
2020/12/24 07:13:36;;;;;;;2.53;1.25;;;11.80;82.90;;;;;;4878247;28;96900;-77
2020/12/24 07:16:06;;;;;;;3.78;1.45;;;11.90;82.60;;;;;;4869211;28;92173;-77
2020/12/24 07:18:37;;;;;;;2.88;1.50;;;11.90;81.80;;;;;;4883270;28;92470;-77
2020/12/24 07:21:10;;;;;;;2.23;1.10;;;11.90;81.70;;;;;;4871139;28;93564;-77
2020/12/24 07:23:39;;;;;;;3.88;1.35;;;12.00;80.80;;;;;;4861419;28;94310;-77
2020/12/24 07:26:10;;;;;;;2.00;1.38;;;12.00;81.10;;;;;;4883278;28;92138;-77
2020/12/24 07:28:38;;;;;;;2.25;1.30;;;12.10;81.00;;;;;;4877611;28;92709;-76
2020/12/24 07:31:06;;;;;;;2.50;1.40;;;12.10;80.30;;;;;;4868050;28;96451;-76
2020/12/24 07:33:33;;;;;;;3.03;1.27;;;12.10;80.00;;;;;;4868943;28;96147;-77
2020/12/24 07:36:00;;;;;;;2.83;1.40;;;12.20;79.90;;;;;;4869935;28;93619;-77
2020/12/24 07:38:28;;;;;;;4.13;1.60;;;12.10;80.10;;;;;;4871363;28;91393;-77
2020/12/24 07:40:54;;;;;;;1.85;1.13;;;12.10;79.80;;;;;;4886501;28;92995;-76
2020/12/24 07:43:20;;;;;;;2.50;1.52;;;12.10;79.90;;;;;;4888406;28;93310;-77
2020/12/24 07:45:46;;;;;;;3.33;1.55;;;12.10;80.00;;;;;;4869783;28;93205;-77
2020/12/24 07:48:18;;;;;;;2.15;1.23;;;12.20;79.60;;;;;;4885684;28;92710;-77
2020/12/24 07:50:45;;;;;;;2.88;1.20;;;12.20;79.20;;;;;;4886215;28;93678;-77
2020/12/24 07:53:18;;;;;;;2.45;1.52;;;12.20;79.50;;;;;;4884299;28;96166;-78
2020/12/24 07:55:44;;;;;;;2.40;1.83;;;12.20;80.60;;;;;;4886489;28;92773;-79
2020/12/24 07:58:12;;;;;;;5.85;2.10;;;12.20;80.00;;;;;;4873012;28;92239;-79
2020/12/24 08:00:42;;;;;;;3.40;2.00;;;12.30;79.90;;;;;;4881248;28;94843;-78
2020/12/24 08:03:09;;;;;;;3.22;1.88;;;12.20;80.00;;;;;;4887678;28;98259;-77
2020/12/24 08:05:35;;;;;;;3.90;1.92;;;12.20;79.80;;;;;;4890363;28;91917;-79
2020/12/24 08:08:01;;;;;;;3.53;1.92;;;12.20;79.70;;;;;;4871997;28;92007;-78
2020/12/24 08:10:27;;;;;;;2.58;2.13;;;12.20;80.30;;;;;;4898177;28;97216;-78
2020/12/24 08:13:00;;;;;;;3.72;2.30;;;12.20;80.50;;;;;;4875798;28;93267;-78
2020/12/24 08:15:29;;;;;;;3.85;1.75;;;12.30;80.30;;;;;;4884158;28;92044;-79
2020/12/24 08:17:59;;;;;;;6.43;3.53;;;12.30;80.40;;;;;;4901958;28;92019;-78
2020/12/24 08:20:46;;;;;;;3.40;1.83;;;12.30;79.60;;;;;;4890174;28;96578;-78
2020/12/24 08:23:38;;;;;;;2.75;1.55;;;12.30;79.80;;;;;;4890745;28;92581;-79
2020/12/24 08:26:06;;;;;;;4.72;2.42;;;12.20;79.00;;;;;;4890852;28;92196;-79
2020/12/24 08:31:14;;;;;;;4.25;2.08;;;12.20;79.20;;;;;;5085330;23;93878;-73
2020/12/24 08:33:41;;;;;;;3.40;1.63;;;12.20;79.50;;;;;;4870716;28;92920;-75
2020/12/24 08:36:17;;;;;;;3.83;2.25;;;12.20;79.00;;;;;;4871532;28;93001;-75
2020/12/24 08:38:43;;;;;;;3.55;2.30;;;12.20;79.00;;;;;;4856828;28;91998;-75
2020/12/24 08:41:20;;;;;;;4.43;2.35;;;12.20;78.70;;;;;;4882981;28;91882;-75
2020/12/24 08:43:55;;;;;;;3.40;2.40;;;12.20;78.20;;;;;;4859239;28;97927;-74
2020/12/24 08:46:22;;;;;;;3.90;2.30;;;12.20;78.20;;;;;;4881978;28;92093;-74
2020/12/24 08:48:49;;;;;;;2.97;2.05;;;12.30;78.70;;;;;;4891584;28;92802;-75
2020/12/24 08:51:19;;;;;;;4.28;2.53;;;12.30;77.60;;;;;;4907717;28;93234;-75
2020/12/24 08:53:46;;;;;;;3.55;2.10;;;12.30;76.30;;;;;;4873558;28;94613;-75
2020/12/24 08:56:14;;;;;;;3.35;1.95;;;12.20;75.50;;;;;;4890311;28;92367;-75
2020/12/24 08:58:50;;;;;;;4.25;2.60;;;12.20;75.20;;;;;;4869144;28;92154;-75
2020/12/24 09:01:17;;;;;;;4.40;2.50;;;12.20;75.10;;;;;;4881287;28;93780;-75
2020/12/24 09:03:43;;;;;;;2.20;1.63;;;12.10;74.50;;;;;;4862699;28;97344;-78
2020/12/24 09:06:11;;;;;;;2.30;1.88;;;12.20;73.90;;;;;;4898650;28;91948;-75
2020/12/24 09:08:37;;;;;;;2.95;1.80;;;12.30;72.20;;;;;;4867731;28;92840;-76
2020/12/24 09:11:03;;;;;;;4.18;1.75;;;12.20;72.80;;;;;;4864981;28;96267;-75
2020/12/24 09:13:29;;;;;;;3.60;2.40;;;12.30;70.80;;;;;;4849057;28;96064;-75
2020/12/24 09:15:55;;;;;;;4.55;2.50;;;12.30;70.30;;;;;;4881407;28;92042;-75
2020/12/24 09:18:20;;;;;;;6.10;2.33;;;12.30;70.00;;;;;;4863641;28;91540;-75
2020/12/24 09:20:46;;;;;;;4.88;2.20;;;12.20;69.50;;;;;;4848045;28;96454;-75
2020/12/24 09:23:14;;;;;;;5.88;3.55;;;12.30;69.70;;;;;;4885331;28;93444;-75
2020/12/24 09:25:42;;;;;;;6.18;4.00;;;12.30;69.00;;;;;;4877496;28;93065;-78
2020/12/24 09:28:18;;;;;;;9.27;3.78;;;12.20;68.60;;;;;;4863264;28;92358;-78
2020/12/24 09:30:44;;;;;;;9.18;5.10;;;12.30;68.50;;;;;;4878074;28;92912;-76
2020/12/24 09:33:10;;;;;;;9.43;4.80;;;12.30;67.80;;;;;;4863629;28;96417;-75
2020/12/24 09:35:36;;;;;;;6.40;3.33;;;12.20;68.00;;;;;;4865715;28;91948;-77
2020/12/24 09:38:02;;;;;;;15.65;7.68;;;12.20;68.40;;;;;;4868378;28;91870;-76
2020/12/24 09:40:28;;;;;;;7.93;3.92;;;12.30;68.50;;;;;;4901324;28;93377;-75
2020/12/24 09:42:54;;;;;;;11.80;6.07;;;12.30;67.80;;;;;;4849888;28;96297;-75
2020/12/24 09:45:21;;;;;;;4.00;2.40;;;12.30;67.50;;;;;;4852624;28;92127;-75
2020/12/24 09:47:47;;;;;;;4.35;2.75;;;12.30;67.60;;;;;;4889618;28;92094;-77
2020/12/24 09:50:13;;;;;;;13.05;5.70;;;12.30;68.10;;;;;;4897327;28;93887;-75
2020/12/24 09:52:39;;;;;;;4.60;2.03;;;12.30;68.10;;;;;;4868248;28;97188;-75
2020/12/24 09:55:06;;;;;;;4.35;2.35;;;12.30;68.40;;;;;;4901791;28;92712;-75
2020/12/24 09:57:34;;;;;;;8.43;4.53;;;12.20;68.60;;;;;;4903439;28;92184;-75
2020/12/24 10:00:00;;;;;;;7.50;4.10;;;12.30;69.00;;;;;;4902228;28;93029;-76
2020/12/24 10:02:26;;;;;;;4.15;2.65;;;12.30;69.70;;;;;;4860448;28;96074;-76
2020/12/24 10:04:55;;;;;;;6.32;4.40;;;12.20;70.00;;;;;;4868313;28;92567;-77
2020/12/24 10:07:22;;;;;;;9.32;5.68;;;12.20;70.40;;;;;;4885913;28;91552;-76
2020/12/24 10:09:52;;;;;;;6.47;4.03;;;12.30;70.80;;;;;;4883350;28;93210;-76
2020/12/24 10:12:19;;;;;;;6.03;3.53;;;12.30;71.10;;;;;;4883980;28;95052;-76
2020/12/24 10:14:45;;;;;;;5.40;2.97;;;12.20;70.70;;;;;;4883500;28;93609;-76
2020/12/24 10:17:11;;;;;;;4.10;2.42;;;12.20;71.40;;;;;;4865301;28;91998;-76
2020/12/24 10:19:39;;;;;;;3.83;1.67;;;12.20;70.40;;;;;;4890662;28;96849;-76
2020/12/24 10:22:05;;;;;;;4.50;2.40;;;12.10;70.00;;;;;;4871853;28;92823;-76
2020/12/24 10:24:31;;;;;;;5.35;3.55;;;12.10;71.00;;;;;;4881060;28;92072;-76
2020/12/24 10:26:57;;;;;;;3.63;1.65;;;12.10;67.20;;;;;;4869281;28;92213;-77
2020/12/24 10:29:23;;;;;;;3.97;2.35;;;12.10;64.80;;;;;;4889566;28;96458;-76
2020/12/24 10:31:49;;;;;;;3.17;1.88;;;12.00;64.70;;;;;;4877159;28;92904;-76
2020/12/24 10:34:15;;;;;;;2.55;1.50;;;12.00;65.00;;;;;;4878416;28;92504;-77
2020/12/24 10:36:41;;;;;;;5.75;1.80;;;12.00;64.10;;;;;;4889714;28;92298;-77
2020/12/24 10:39:09;;;;;;;5.22;2.33;;;12.10;62.70;;;;;;4846345;29;97247;-80
2020/12/24 10:41:39;;;;;;;5.75;2.60;;;12.10;62.10;;;;;;4886510;28;94345;-79
2020/12/24 10:44:07;;;;;;;5.65;2.13;;;12.20;61.40;;;;;;4875329;28;92082;-79
2020/12/24 10:46:34;;;;;;;5.13;2.00;;;12.20;61.30;;;;;;4883904;28;92922;-79
2020/12/24 10:49:01;;;;;;;11.18;3.30;;;12.10;61.40;;;;;;4887358;28;93342;-79
2020/12/24 10:51:27;;;;;;;5.35;3.42;;;12.10;62.40;;;;;;4871183;28;94928;-79
2020/12/24 10:53:53;;;;;;;6.43;3.20;;;12.10;62.10;;;;;;4890545;28;93275;-79
2020/12/24 10:56:19;;;;;;;7.10;3.25;;;12.20;62.30;;;;;;4898834;28;93165;-80
2020/12/24 10:58:45;;;;;;;6.00;2.70;;;12.30;62.30;;;;;;4891150;28;94698;-79
2020/12/24 11:01:18;;;;;;;3.65;2.20;;;12.30;61.80;;;;;;4867017;28;95469;-78
2020/12/24 11:03:45;;;;;;;4.35;2.40;;;12.30;61.60;;;;;;4886857;28;93059;-78
2020/12/24 11:06:19;;;;;;;6.25;3.50;;;12.20;62.30;;;;;;4908936;28;92058;-79
2020/12/24 11:08:46;;;;;;;6.68;3.05;;;12.20;62.60;;;;;;5167947;23;93649;-77
2020/12/24 11:11:12;;;;;;;4.85;3.42;;;12.10;62.60;;;;;;4908888;28;96682;-80
2020/12/24 11:13:39;;;;;;;6.72;4.03;;;12.20;62.90;;;;;;4902341;28;92370;-80
2020/12/24 11:16:05;;;;;;;6.95;3.70;;;12.10;63.00;;;;;;4898731;28;92020;-77
2020/12/24 11:18:31;;;;;;;8.15;4.10;;;12.10;63.60;;;;;;4865641;28;95142;-77
2020/12/24 11:20:58;;;;;;;9.10;5.30;;;12.10;64.00;;;;;;4879924;28;91287;-77
2020/12/24 11:23:24;;;;;;;10.55;5.47;;;12.10;64.40;;;;;;4885817;28;92718;-78
2020/12/24 11:25:49;;;;;;;11.30;6.40;;;12.10;64.50;;;;;;4867383;28;92143;-77
2020/12/24 11:28:15;;;;;;;11.98;6.88;;;12.10;64.20;;;;;;4870626;28;97142;-79
2020/12/24 11:30:41;;;;;;;12.05;6.78;;;12.10;64.80;;;;;;4865801;28;97387;-77
2020/12/24 11:33:07;;;;;;;11.70;7.15;;;12.10;64.50;;;;;;4902199;28;92134;-77
2020/12/24 11:35:33;;;;;;;10.23;5.95;;;12.10;64.90;;;;;;4882664;28;92398;-78
2020/12/24 11:37:58;;;;;;;14.57;8.95;;;12.10;65.30;;;;;;4881008;28;93210;-77
2020/12/24 11:40:24;;;;;;;17.58;9.50;;;12.20;65.10;;;;;;4860901;29;96351;-77
2020/12/24 11:45:24;;;;;;;7.72;4.72;;;12.60;64.10;;;;;;5319964;23;93586;-84
2020/12/24 12:01:22;;;;;;;7.28;3.88;;;12.60;64.10;;;;;;5718216;23;93783;-79
2020/12/24 12:03:49;;;;;;;6.97;4.57;;;12.40;64.00;;;;;;5264913;23;93664;-81
2020/12/24 12:06:16;;;;;;;10.20;5.45;;;12.30;63.80;;;;;;5646985;23;94310;-79
2020/12/24 12:08:43;;;;;;;8.30;5.18;;;12.20;64.00;;;;;;5039637;23;92531;-79
2020/12/24 12:11:09;;;;;;;7.85;4.95;;;12.30;64.20;;;;;;4925575;28;92870;-80
2020/12/24 12:13:39;;;;;;;9.32;5.72;;;12.30;64.10;;;;;;4924884;28;91941;-80
2020/12/24 12:16:08;;;;;;;15.52;7.15;;;12.30;64.20;;;;;;4928353;28;91855;-80
2020/12/24 12:18:36;;;;;;;16.58;7.40;;;12.30;63.90;;;;;;4945779;28;93798;-78
2020/12/24 12:21:03;;;;;;;17.45;8.68;;;12.20;63.40;;;;;;5514161;23;94880;-81
2020/12/24 12:23:29;;;;;;;15.60;6.68;;;12.20;63.60;;;;;;4964854;28;91446;-80
2020/12/24 12:25:55;;;;;;;11.05;5.75;;;12.20;63.80;;;;;;4948653;28;91961;-80
2020/12/24 12:28:21;;;;;;;6.50;3.83;;;12.10;63.20;;;;;;4948489;28;91774;-81
2020/12/24 12:33:25;;;;;;;6.13;3.35;;;12.00;62.50;;;;;;4895151;28;91872;-78
2020/12/24 12:35:51;;;;;;;6.18;3.95;;;12.20;62.60;;;;;;4892591;28;91323;-79
2020/12/24 12:38:17;;;;;;;8.50;4.05;;;12.20;62.60;;;;;;4890963;28;93665;-79
2020/12/24 12:40:42;;;;;;;18.63;7.03;;;12.40;62.30;;;;;;4858107;28;96101;-78
2020/12/24 12:43:08;;;;;;;9.38;4.43;;;12.50;62.10;;;;;;4872471;28;93003;-78
2020/12/24 12:45:34;;;;;;;7.88;3.92;;;12.50;61.40;;;;;;4872758;28;91957;-77
2020/12/24 12:48:00;;;;;;;9.48;4.45;;;12.50;61.30;;;;;;4887410;28;96284;-80
2020/12/24 12:50:26;;;;;;;22.40;10.00;;;12.40;61.80;;;;;;4872619;28;92664;-77
2020/12/24 12:52:51;;;;;;;9.52;5.55;;;12.40;62.00;;;;;;4857649;28;92152;-79
2020/12/24 12:55:17;;;;;;;24.90;12.35;;;12.20;63.10;;;;;;4867511;28;93262;-75
2020/12/24 12:57:45;;;;;;;12.30;5.68;;;12.20;63.50;;;;;;4867492;28;96288;-75
2020/12/24 13:00:11;;;;;;;16.40;9.05;;;12.10;63.70;;;;;;4882424;28;96745;-75
2020/12/24 13:02:37;;;;;;;6.68;3.58;;;12.10;63.50;;;;;;4868729;28;92046;-75
2020/12/24 13:05:06;;;;;;;16.30;8.55;;;12.20;62.00;;;;;;4884397;28;92013;-75
2020/12/24 13:07:32;;;;;;;13.00;7.15;;;12.20;61.20;;;;;;4868076;28;93626;-75
2020/12/24 13:09:58;;;;;;;15.27;5.50;;;12.20;60.90;;;;;;4868096;28;93220;-75